Time;durP1;ratioP1;P1;durP2;ratioP2;P2;SDS_P1;SDS_P2;PMS_P1;PMS_P2;Temp;Humidity;BMP_temperature;BMP_pressure;BME280_temperature;BME280_humidity;BME280_pressure;Samples;Min_cycle;Max_cycle;Signal;HPM_P1;HPM_P2
2021/12/10 00:00:37;;;;;;;2.30;2.20;;;;;;;2.25;100.00;99790.97;4956796;29;20065;-79
2021/12/10 00:03:07;;;;;;;2.45;2.35;;;;;;;2.26;100.00;99782.19;4957261;29;20074;-79
2021/12/10 00:05:37;;;;;;;2.20;2.10;;;;;;;2.26;100.00;99779.56;4957104;29;20038;-78
2021/12/10 00:08:55;;;;;;;2.50;2.40;;;;;;;2.28;100.00;99776.91;4956610;29;20526;-79
2021/12/10 00:11:39;;;;;;;2.65;2.55;;;;;;;2.31;100.00;99771.59;4956525;29;20140;-79
2021/12/10 00:14:05;;;;;;;2.80;2.60;;;;;;;2.31;100.00;99756.72;4957165;29;20127;-79
2021/12/10 00:16:51;;;;;;;2.15;2.05;;;;;;;2.28;100.00;99748.97;4956691;29;20035;-78
2021/12/10 00:19:31;;;;;;;3.00;2.80;;;;;;;2.31;100.00;99746.25;4956797;29;20031;-79
2021/12/10 00:22:16;;;;;;;2.45;2.35;;;;;;;2.34;100.00;99733.06;4956479;29;20028;-79
2021/12/10 00:24:45;;;;;;;3.78;3.55;;;;;;;2.35;100.00;99731.31;4956726;29;20467;-79
2021/12/10 00:27:12;;;;;;;2.97;2.78;;;;;;;2.40;100.00;99735.53;4955043;29;20110;-79
2021/12/10 00:29:42;;;;;;;3.03;2.45;;;;;;;2.43;100.00;99719.72;4937553;29;20024;-81
2021/12/10 00:32:16;;;;;;;;;;;;;;;2.49;100.00;99708.22;4938022;29;20024;-81
2021/12/10 00:34:46;;;;;;;2.33;2.22;;;;;;;2.43;100.00;99700.50;4937573;29;19934;-78
2021/12/10 00:37:14;;;;;;;3.15;2.95;;;;;;;2.43;100.00;99688.25;4936782;29;20028;-81
2021/12/10 00:39:46;;;;;;;4.50;3.28;;;;;;;2.43;100.00;99685.66;4935800;29;20043;-81
2021/12/10 00:42:18;;;;;;;3.58;3.38;;;;;;;2.47;100.00;99674.19;4936827;29;20118;-81
2021/12/10 00:44:44;;;;;;;2.08;1.98;;;;;;;2.46;100.00;99671.63;4936715;29;20059;-80
2021/12/10 00:47:10;;;;;;;3.53;3.33;;;;;;;2.41;100.00;99660.41;4936312;29;20122;-81
2021/12/10 00:49:44;;;;;;;2.70;2.55;;;;;;;2.40;100.00;99651.69;4936591;29;20059;-80
2021/12/10 00:52:15;;;;;;;2.63;2.53;;;;;;;2.40;100.00;99630.72;4919959;29;20466;-80
2021/12/10 00:54:41;;;;;;;2.42;2.33;;;;;;;2.40;100.00;99635.97;4936575;29;20094;-81
2021/12/10 00:57:08;;;;;;;3.13;2.92;;;;;;;2.28;100.00;99636.31;4936454;29;20472;-80
2021/12/10 00:59:48;;;;;;;2.53;2.42;;;;;;;2.28;100.00;99620.59;4936690;29;20035;-80
2021/12/10 01:02:17;;;;;;;2.10;1.90;;;;;;;2.23;100.00;99619.88;4937250;29;20020;-80
2021/12/10 01:04:48;;;;;;;2.90;2.70;;;;;;;2.21;100.00;99610.31;4936725;29;20020;-81
2021/12/10 01:07:46;;;;;;;2.05;1.95;;;;;;;2.09;100.00;99605.44;4936721;29;20023;-80
2021/12/10 01:10:19;;;;;;;2.20;2.10;;;;;;;2.10;100.00;99600.16;4931925;29;20051;-80
2021/12/10 01:12:58;;;;;;;2.65;2.50;;;;;;;2.00;100.00;99588.22;4936664;29;20043;-80
2021/12/10 01:15:46;;;;;;;2.43;2.33;;;;;;;1.92;100.00;99584.97;4936796;29;20103;-81
2021/12/10 01:23:58;;;;;;;2.75;2.55;;;;;;;1.96;100.00;99570.88;4936968;29;20065;-81
2021/12/10 01:29:15;;;;;;;2.17;1.98;;;;;;;1.96;100.00;99557.78;4936397;29;20369;-81
2021/12/10 01:31:41;;;;;;;1.80;1.70;;;;;;;1.89;100.00;99551.00;4936366;29;20083;-81
2021/12/10 01:34:09;;;;;;;2.28;2.17;;;;;;;1.87;100.00;99549.34;4937040;29;20081;-81
2021/12/10 01:36:35;;;;;;;2.05;1.95;;;;;;;1.90;100.00;99544.03;4939741;29;20030;-81
2021/12/10 01:39:04;;;;;;;2.50;2.40;;;;;;;1.93;100.00;99544.81;4938133;29;20028;-81
2021/12/10 01:41:34;;;;;;;2.92;2.75;;;;;;;1.97;100.00;99535.09;4936650;29;20371;-81
2021/12/10 01:44:04;;;;;;;2.28;2.17;;;;;;;1.92;100.00;99537.00;4936818;29;20043;-81
2021/12/10 01:46:37;;;;;;;2.13;2.03;;;;;;;2.02;100.00;99539.28;4936188;29;20030;-81
2021/12/10 01:49:12;;;;;;;2.25;2.15;;;;;;;1.92;100.00;99527.38;4936450;29;20031;-80
2021/12/10 01:52:06;;;;;;;3.00;2.80;;;;;;;1.85;100.00;99528.44;4935765;29;20028;-81
2021/12/10 01:55:14;;;;;;;1.77;1.67;;;;;;;1.86;100.00;99522.31;4935179;29;20055;-81
2021/12/10 01:57:40;;;;;;;3.25;2.97;;;;;;;1.85;100.00;99509.25;4935725;29;20040;-81
2021/12/10 02:00:11;;;;;;;3.00;2.80;;;;;;;1.80;100.00;99504.16;4935848;29;20028;-81
2021/12/10 02:02:46;;;;;;;2.20;2.10;;;;;;;1.80;100.00;99495.47;4935824;29;20035;-81
2021/12/10 02:05:13;;;;;;;2.35;2.25;;;;;;;1.85;100.00;99491.81;4935181;29;20086;-81
2021/12/10 02:07:38;;;;;;;2.75;2.20;;;;;;;1.87;100.00;99476.06;4935623;29;20122;-81
2021/12/10 02:10:09;;;;;;;1.90;1.80;;;;;;;1.90;100.00;99474.22;4935259;29;20039;-81
2021/12/10 02:12:35;;;;;;;5.30;2.75;;;;;;;1.87;100.00;99470.81;4935549;29;20027;-80
2021/12/10 02:15:03;;;;;;;1.98;1.88;;;;;;;1.97;100.00;99460.00;4935749;29;20095;-81
2021/12/10 02:17:38;;;;;;;2.08;1.98;;;;;;;1.92;100.00;99468.94;4935469;29;20082;-81
2021/12/10 02:20:14;;;;;;;2.55;2.45;;;;;;;1.96;100.00;99460.94;4935640;29;20095;-80
2021/12/10 02:22:40;;;;;;;2.20;2.10;;;;;;;1.90;100.00;99449.78;4935590;29;20054;-80
2021/12/10 02:25:07;;;;;;;1.70;1.60;;;;;;;1.94;100.00;99449.63;4935088;29;20051;-81
2021/12/10 02:27:33;;;;;;;2.30;2.20;;;;;;;2.00;100.00;99435.53;4931256;29;20045;-81
2021/12/10 02:29:59;;;;;;;1.70;1.60;;;;;;;1.93;100.00;99433.97;4925154;29;20058;-81
2021/12/10 02:32:26;;;;;;;2.20;2.10;;;;;;;1.99;100.00;99437.28;4934907;29;20475;-81
2021/12/10 02:34:54;;;;;;;1.70;1.60;;;;;;;2.07;100.00;99439.66;4935663;29;20028;-81
2021/12/10 02:37:21;;;;;;;2.13;2.03;;;;;;;2.05;100.00;99423.16;4935896;29;20023;-81
2021/12/10 02:39:48;;;;;;;1.60;1.50;;;;;;;2.05;100.00;99408.28;4934922;29;20039;-81
2021/12/10 02:42:25;;;;;;;1.80;1.70;;;;;;;2.20;100.00;99409.56;4935655;29;20027;-81
2021/12/10 02:44:51;;;;;;;1.75;1.65;;;;;;;2.21;100.00;99404.28;4935567;29;20058;-81
2021/12/10 02:47:20;;;;;;;1.70;1.60;;;;;;;2.22;100.00;99398.13;4935192;29;20464;-81
2021/12/10 02:49:45;;;;;;;2.20;2.10;;;;;;;2.27;100.00;99388.34;4937451;29;20031;-81
2021/12/10 02:52:11;;;;;;;1.98;1.88;;;;;;;2.37;100.00;99402.88;4939288;29;20039;-81
2021/12/10 02:54:42;;;;;;;2.25;2.15;;;;;;;2.26;100.00;99389.28;4938464;29;20023;-81
2021/12/10 02:57:16;;;;;;;2.08;1.98;;;;;;;2.38;100.00;99369.69;4939215;29;20044;-80
2021/12/10 02:59:41;;;;;;;1.80;1.70;;;;;;;2.46;100.00;99370.28;4938711;29;20039;-79
2021/12/10 03:02:15;;;;;;;2.47;2.38;;;;;;;2.51;100.00;99371.84;4939620;29;20487;-79
2021/12/10 03:04:42;;;;;;;1.77;1.67;;;;;;;2.46;100.00;99371.13;4938810;29;20058;-79
2021/12/10 03:07:13;;;;;;;1.70;1.60;;;;;;;2.46;100.00;99365.88;4943641;29;20050;-79
2021/12/10 03:09:45;;;;;;;2.00;1.90;;;;;;;2.51;100.00;99361.34;4944961;29;20027;-79
2021/12/10 03:12:13;;;;;;;1.95;1.85;;;;;;;2.51;100.00;99360.50;4944921;29;20031;-79
2021/12/10 03:14:43;;;;;;;1.80;1.70;;;;;;;2.43;100.00;99352.03;4943736;29;20094;-79
2021/12/10 03:17:28;;;;;;;;;;;;;;;2.41;100.00;99349.47;4945350;29;20028;-78
2021/12/10 03:23:15;;;;;;;2.20;2.10;;;;;;;2.44;100.00;99341.50;4898357;29;20036;-78
2021/12/10 03:25:47;;;;;;;2.13;2.03;;;;;;;2.42;100.00;99334.59;4897987;29;20044;-78
2021/12/10 03:28:12;;;;;;;1.90;1.80;;;;;;;2.35;100.00;99331.34;4922531;29;20482;-78
2021/12/10 03:30:52;;;;;;;2.30;2.20;;;;;;;2.27;100.00;99320.25;4938009;29;20032;-78
2021/12/10 03:33:19;;;;;;;2.05;1.95;;;;;;;2.44;100.00;99320.53;4931715;29;20027;-79
2021/12/10 03:35:49;;;;;;;1.70;1.60;;;;;;;2.39;100.00;99317.25;4918279;29;20028;-79
2021/12/10 03:38:33;;;;;;;2.10;2.00;;;;;;;2.35;100.00;99322.63;4919075;29;20028;-78
2021/12/10 03:40:59;;;;;;;1.83;1.73;;;;;;;2.40;100.00;99318.94;4917305;29;20044;-78
2021/12/10 03:43:26;;;;;;;1.60;1.50;;;;;;;2.32;100.00;99310.47;4918622;29;20032;-78
2021/12/10 03:45:54;;;;;;;1.73;1.63;;;;;;;2.31;100.00;99314.03;4919301;29;20040;-79
2021/12/10 03:48:24;;;;;;;1.95;1.85;;;;;;;2.37;100.00;99303.31;4918998;29;20043;-78
2021/12/10 03:51:06;;;;;;;1.88;1.77;;;;;;;2.44;100.00;99304.81;4918360;29;20029;-78
2021/12/10 03:53:31;;;;;;;2.40;2.28;;;;;;;2.39;100.00;99298.91;4918809;29;20024;-78
2021/12/10 03:56:06;;;;;;;1.60;1.50;;;;;;;2.35;100.00;99285.97;4918545;29;20096;-81
2021/12/10 03:58:32;;;;;;;1.95;1.85;;;;;;;2.44;100.00;99286.47;4918836;29;20032;-78
2021/12/10 04:00:59;;;;;;;1.85;1.75;;;;;;;2.44;100.00;99283.84;4917707;29;20040;-78
2021/12/10 04:03:27;;;;;;;2.55;2.05;;;;;;;2.42;100.00;99264.72;4918247;29;20076;-78
2021/12/10 04:05:53;;;;;;;1.60;1.50;;;;;;;2.39;100.00;99267.47;4918666;29;20099;-78
2021/12/10 04:08:19;;;;;;;3.03;2.72;;;;;;;2.42;100.00;99256.88;4918951;29;20108;-79
2021/12/10 04:10:47;;;;;;;1.67;1.58;;;;;;;2.45;100.00;99262.00;4918278;29;20083;-79
2021/12/10 04:13:13;;;;;;;1.73;1.63;;;;;;;2.48;100.00;99261.03;4918496;29;20024;-79
2021/12/10 04:15:39;;;;;;;2.20;2.10;;;;;;;2.54;100.00;99263.44;4918254;29;20017;-79
2021/12/10 04:18:25;;;;;;;1.77;1.67;;;;;;;2.51;100.00;99250.44;4918040;29;20024;-79
2021/12/10 04:20:56;;;;;;;1.70;1.60;;;;;;;2.45;100.00;99246.28;4918156;29;20082;-79
2021/12/10 04:23:24;;;;;;;1.67;1.58;;;;;;;2.46;100.00;99244.53;4918619;29;20612;-80
2021/12/10 04:25:50;;;;;;;1.70;1.60;;;;;;;2.53;100.00;99239.00;4920035;29;20257;-80
2021/12/10 04:28:18;;;;;;;2.00;1.90;;;;;;;2.49;100.00;99231.31;4937566;29;20028;-80
2021/12/10 04:30:46;;;;;;;1.90;1.80;;;;;;;2.49;100.00;99228.69;4919708;29;20027;-80
2021/12/10 04:33:15;;;;;;;1.70;1.60;;;;;;;2.60;100.00;99235.25;4935870;29;20472;-79
2021/12/10 04:35:57;;;;;;;2.00;1.90;;;;;;;2.61;100.00;99223.88;4935938;29;20053;-80
2021/12/10 04:38:23;;;;;;;2.10;2.00;;;;;;;2.50;100.00;99225.16;4929853;29;20019;-80
2021/12/10 04:41:06;;;;;;;1.83;1.73;;;;;;;2.45;100.00;99209.59;4922042;29;20036;-80
2021/12/10 04:43:57;;;;;;;1.60;1.50;;;;;;;2.59;100.00;99207.34;4934024;29;20110;-80
2021/12/10 04:47:20;;;;;;;1.75;1.65;;;;;;;2.57;100.00;99201.28;4920367;29;20050;-79
2021/12/10 04:49:39;;;;;;;2.10;2.00;;;;;;;2.55;100.00;99205.72;4932206;29;20044;-78
2021/12/10 04:52:20;;;;;;;1.60;1.50;;;;;;;2.54;100.00;99197.91;4934810;29;20035;-79
2021/12/10 04:54:46;;;;;;;1.70;1.60;;;;;;;2.59;100.00;99201.22;4932673;29;20039;-79
2021/12/10 04:57:38;;;;;;;1.67;1.58;;;;;;;2.62;100.00;99199.38;4935459;29;20413;-80
2021/12/10 05:03:20;;;;;;;1.50;1.40;;;;;;;2.48;100.00;99188.53;4918476;29;20043;-80
2021/12/10 05:05:46;;;;;;;1.67;1.58;;;;;;;2.52;100.00;99182.25;4932948;29;20031;-79
2021/12/10 05:08:12;;;;;;;1.60;1.50;;;;;;;2.58;100.00;99171.56;4931643;29;20023;-79
2021/12/10 05:10:43;;;;;;;1.50;1.40;;;;;;;2.62;100.00;99172.28;4932985;29;20031;-80
2021/12/10 05:13:09;;;;;;;1.60;1.50;;;;;;;2.62;100.00;99169.66;4934968;29;20020;-80
2021/12/10 05:15:38;;;;;;;1.60;1.50;;;;;;;2.52;100.00;99163.91;4936451;29;20035;-80
2021/12/10 05:18:04;;;;;;;1.80;1.70;;;;;;;2.70;100.00;99165.00;4936031;29;20034;-79
2021/12/10 05:20:35;;;;;;;1.50;1.40;;;;;;;2.62;100.00;99162.66;4935619;29;20503;-78
2021/12/10 05:23:02;;;;;;;1.52;1.48;;;;;;;2.69;100.00;99158.06;4936197;29;20024;-77
2021/12/10 05:25:29;;;;;;;1.52;1.42;;;;;;;2.65;100.00;99156.44;4936199;29;20107;-78
2021/12/10 05:27:57;;;;;;;1.90;1.80;;;;;;;2.62;100.00;99154.81;4935730;29;20039;-78
2021/12/10 05:30:27;;;;;;;1.50;1.40;;;;;;;2.68;100.00;99153.72;4936390;29;20061;-79
2021/12/10 05:32:52;;;;;;;1.77;1.67;;;;;;;2.63;100.00;99151.25;4919106;29;20020;-80
2021/12/10 05:35:18;;;;;;;2.00;1.90;;;;;;;2.72;100.00;99150.94;4918744;29;20083;-79
2021/12/10 05:37:43;;;;;;;1.70;1.60;;;;;;;2.70;100.00;99150.13;4935525;29;20034;-80
2021/12/10 05:40:13;;;;;;;1.65;1.55;;;;;;;2.67;100.00;99158.13;4935968;29;20032;-79
2021/12/10 05:42:40;;;;;;;1.73;1.63;;;;;;;2.62;100.00;99146.09;4935081;29;20028;-78
2021/12/10 05:45:06;;;;;;;1.88;1.77;;;;;;;2.69;100.00;99145.81;4935557;29;20432;-78
2021/12/10 05:47:31;;;;;;;2.15;2.05;;;;;;;2.70;100.00;99144.91;4935336;29;20032;-79
2021/12/10 05:49:57;;;;;;;1.50;1.40;;;;;;;2.81;100.00;99149.72;4935161;29;20034;-79
2021/12/10 05:52:25;;;;;;;1.80;1.70;;;;;;;2.72;100.00;99139.59;4935645;29;20028;-80
2021/12/10 05:54:52;;;;;;;1.88;1.77;;;;;;;2.79;100.00;99127.94;4934631;29;20024;-80
2021/12/10 05:57:19;;;;;;;1.52;1.42;;;;;;;2.82;100.00;99141.78;4935255;29;20115;-80
2021/12/10 05:59:45;;;;;;;2.10;2.00;;;;;;;2.96;100.00;99136.03;4935840;29;20027;-79
2021/12/10 06:02:27;;;;;;;1.60;1.50;;;;;;;2.82;100.00;99133.94;4935459;29;20118;-82
2021/12/10 06:04:52;;;;;;;1.95;1.85;;;;;;;2.80;100.00;99130.53;4935562;29;20031;-79
2021/12/10 06:07:23;;;;;;;1.50;1.40;;;;;;;2.82;100.00;99120.00;4935996;29;20365;-78
2021/12/10 06:09:48;;;;;;;1.50;1.40;;;;;;;2.83;100.00;99132.16;4934841;29;20110;-79
2021/12/10 06:12:14;;;;;;;2.17;2.00;;;;;;;2.78;100.00;99136.72;4935299;29;20076;-80
2021/12/10 06:14:40;;;;;;;1.50;1.40;;;;;;;2.80;100.00;99143.63;4935267;29;20109;-79
2021/12/10 06:17:05;;;;;;;1.60;1.50;;;;;;;2.80;100.00;99135.78;4934898;29;20483;-79
2021/12/10 06:19:31;;;;;;;1.60;1.50;;;;;;;2.80;100.00;99137.53;4934877;29;20032;-79
2021/12/10 06:21:56;;;;;;;1.20;1.20;;;;;;;2.90;100.00;99134.50;4935629;29;20068;-79
2021/12/10 06:24:24;;;;;;;1.70;1.60;;;;;;;2.86;100.00;99148.66;4936637;29;20367;-79
2021/12/10 06:26:52;;;;;;;1.50;1.40;;;;;;;2.79;100.00;99135.81;4939076;29;20035;-79
2021/12/10 06:29:17;;;;;;;1.50;1.40;;;;;;;2.77;100.00;99143.72;4939197;29;20024;-79
2021/12/10 06:31:43;;;;;;;1.58;1.48;;;;;;;2.78;100.00;99131.50;4938264;29;20031;-79
2021/12/10 06:34:08;;;;;;;1.50;1.40;;;;;;;2.85;100.00;99128.56;4939160;29;20523;-79
2021/12/10 06:36:37;;;;;;;1.60;1.50;;;;;;;2.78;100.00;99132.34;4938881;29;20154;-80
2021/12/10 06:39:07;;;;;;;1.90;1.80;;;;;;;2.79;100.00;99131.44;4938188;29;20086;-79
2021/12/10 06:41:36;;;;;;;1.80;1.70;;;;;;;2.82;100.00;99133.09;4938866;29;20028;-79
2021/12/10 06:44:04;;;;;;;1.70;1.60;;;;;;;2.75;100.00;99135.09;4938064;29;20031;-80
2021/12/10 06:46:34;;;;;;;1.95;1.85;;;;;;;2.75;100.00;99132.47;4938904;29;20032;-80
2021/12/10 06:49:03;;;;;;;1.60;1.50;;;;;;;2.76;100.00;99136.78;4939175;29;20043;-80
2021/12/10 06:51:29;;;;;;;1.52;1.42;;;;;;;2.77;100.00;99137.66;4938038;29;20028;-80
2021/12/10 06:54:00;;;;;;;1.60;1.50;;;;;;;2.65;100.00;99136.34;4938952;29;20038;-80
2021/12/10 06:56:28;;;;;;;1.80;1.70;;;;;;;2.66;100.00;99135.41;4938303;29;20526;-79
2021/12/10 06:58:54;;;;;;;1.60;1.50;;;;;;;2.64;100.00;99137.28;4932709;29;20047;-80
2021/12/10 07:01:33;;;;;;;1.60;1.50;;;;;;;2.65;100.00;99143.34;4937783;29;20024;-81
2021/12/10 07:04:01;;;;;;;1.70;1.60;;;;;;;2.78;100.00;99147.22;4938198;29;20024;-81
2021/12/10 07:06:28;;;;;;;1.70;1.60;;;;;;;2.78;100.00;99145.47;4938620;29;20023;-81
2021/12/10 07:08:56;;;;;;;1.50;1.40;;;;;;;2.74;100.00;99140.41;4938808;29;20024;-82
2021/12/10 07:11:34;;;;;;;1.50;1.40;;;;;;;2.75;100.00;99134.22;4938421;29;20028;-81
2021/12/10 07:14:03;;;;;;;1.60;1.50;;;;;;;2.80;100.00;99146.25;4939406;29;20047;-81
2021/12/10 07:16:47;;;;;;;2.15;2.05;;;;;;;2.70;100.00;99152.75;4938619;29;20032;-81
2021/12/10 07:19:32;;;;;;;1.65;1.55;;;;;;;2.62;100.00;99144.31;4937618;29;20039;-82
2021/12/10 07:21:57;;;;;;;1.60;1.50;;;;;;;2.75;100.00;99142.97;4934529;29;20024;-85
2021/12/10 07:24:24;;;;;;;9.15;2.67;;;;;;;2.71;100.00;99149.22;5125022;23;20090;-80
2021/12/10 07:26:50;;;;;;;1.60;1.50;;;;;;;2.65;100.00;99153.81;4956770;29;20131;-80
2021/12/10 07:29:16;;;;;;;1.70;1.60;;;;;;;2.72;100.00;99150.94;4953232;29;20215;-81
2021/12/10 16:36:00;;;;;;;1.80;1.70;;;;;;;3.05;100.00;99796.59;5492973;23;20492;-81
2021/12/10 16:38:29;;;;;;;1.60;1.50;;;;;;;3.13;100.00;99803.34;4936585;29;20031;-82
2021/12/10 16:41:15;;;;;;;2.22;2.13;;;;;;;3.07;100.00;99808.75;4937265;29;20027;-82
2021/12/10 16:43:43;;;;;;;1.52;1.42;;;;;;;3.10;100.00;99816.50;4937146;29;20051;-82
2021/12/10 16:46:10;;;;;;;1.70;1.60;;;;;;;3.00;100.00;99822.06;4937356;29;20059;-82
2021/12/10 16:48:41;;;;;;;1.60;1.50;;;;;;;3.17;100.00;99835.56;4936558;29;20032;-81
2021/12/10 16:51:12;;;;;;;1.98;1.88;;;;;;;3.11;100.00;99833.13;4937127;29;20051;-82
2021/12/10 16:54:04;;;;;;;1.80;1.70;;;;;;;3.09;100.00;99841.03;4937457;29;20020;-81
2021/12/10 16:56:30;;;;;;;1.50;1.40;;;;;;;3.06;100.00;99850.75;4936787;29;20075;-81
2021/12/10 16:58:56;;;;;;;2.05;1.95;;;;;;;3.00;100.00;99857.03;4937123;29;20032;-82
2021/12/10 17:01:23;;;;;;;1.58;1.48;;;;;;;3.06;100.00;99856.88;4937394;29;20046;-82
2021/12/10 17:03:53;;;;;;;1.58;1.48;;;;;;;2.99;100.00;99863.16;4936538;29;20099;-81
2021/12/10 17:06:22;;;;;;;2.15;2.05;;;;;;;3.05;100.00;99870.03;4937120;29;20023;-80
2021/12/10 17:08:49;;;;;;;1.67;1.57;;;;;;;3.15;100.00;99876.75;4936460;29;20027;-79
2021/12/10 17:11:26;;;;;;;2.58;2.40;;;;;;;3.12;100.00;99872.44;4936807;29;20166;-83
2021/12/10 17:14:08;;;;;;;2.35;2.22;;;;;;;3.01;100.00;99890.22;4936571;29;20038;-82
2021/12/10 17:16:41;;;;;;;2.35;2.25;;;;;;;3.04;100.00;99892.75;4935467;29;20062;-82
2021/12/10 17:19:09;;;;;;;2.05;1.95;;;;;;;3.01;100.00;99903.34;4934416;29;20547;-81
2021/12/10 17:21:42;;;;;;;2.22;2.13;;;;;;;2.98;100.00;99907.81;4934738;29;20436;-81
2021/12/10 17:24:10;;;;;;;1.85;1.75;;;;;;;2.90;100.00;99915.88;4936699;29;20039;-81
2021/12/10 17:26:39;;;;;;;2.25;2.15;;;;;;;2.96;100.00;99923.56;4936426;29;20052;-81
2021/12/10 17:29:10;;;;;;;2.25;2.15;;;;;;;2.95;100.00;99928.88;4917231;29;20108;-83
2021/12/10 17:31:38;;;;;;;2.40;2.30;;;;;;;2.91;100.00;99940.34;4917668;29;20075;-81
2021/12/10 17:34:08;;;;;;;3.30;2.58;;;;;;;2.92;100.00;99937.69;4917698;29;20034;-81
2021/12/10 17:36:40;;;;;;;2.40;2.20;;;;;;;3.07;100.00;99954.78;4917321;29;20146;-81
2021/12/10 17:39:12;;;;;;;2.75;2.55;;;;;;;3.00;100.00;99955.84;4921722;29;20028;-83
2021/12/10 17:41:37;;;;;;;2.17;2.08;;;;;;;3.01;100.00;99962.78;4936112;29;20496;-82
2021/12/10 17:44:06;;;;;;;2.00;1.90;;;;;;;3.00;100.00;99964.56;4936488;29;20043;-83
2021/12/10 17:47:02;;;;;;;1.98;1.88;;;;;;;3.00;100.00;99979.44;4934321;29;20020;-81
2021/12/10 17:49:31;;;;;;;2.17;2.08;;;;;;;2.97;100.00;99988.28;4932288;29;20062;-84
2021/12/10 17:52:00;;;;;;;2.00;1.90;;;;;;;3.00;100.00;99990.81;4935238;29;20032;-81
2021/12/10 17:54:32;;;;;;;1.75;1.65;;;;;;;3.00;100.00;99992.56;4932517;29;20031;-79
2021/12/10 17:56:59;;;;;;;3.00;2.80;;;;;;;2.98;100.00;99991.72;4934625;29;20027;-80
2021/12/10 17:59:27;;;;;;;1.85;1.75;;;;;;;2.97;100.00;100001.38;4932418;29;20714;-81
2021/12/10 18:01:59;;;;;;;2.00;1.90;;;;;;;2.98;100.00;100004.84;4931385;29;20043;-79
2021/12/10 18:04:26;;;;;;;1.80;1.70;;;;;;;3.05;100.00;100016.91;4934303;29;20019;-78
2021/12/10 18:07:05;;;;;;;2.42;2.33;;;;;;;2.99;100.00;100023.16;4932475;29;20047;-79
2021/12/10 18:09:38;;;;;;;2.83;2.63;;;;;;;2.99;100.00;100032.81;4931658;29;20039;-80
2021/12/10 18:12:12;;;;;;;1.88;1.77;;;;;;;2.99;100.00;100049.38;4926356;29;20527;-80
2021/12/10 18:14:48;;;;;;;2.03;1.92;;;;;;;3.04;100.00;100054.56;4923556;29;20032;-79
2021/12/10 18:17:17;;;;;;;2.08;1.98;;;;;;;3.04;100.00;100055.38;4926685;29;20706;-81
2021/12/10 18:19:48;;;;;;;2.17;2.07;;;;;;;3.20;100.00;100058.47;4921470;29;20051;-82
2021/12/10 18:22:18;;;;;;;2.38;2.25;;;;;;;3.18;100.00;100068.19;4929322;29;20087;-80
2021/12/10 18:24:50;;;;;;;2.90;2.55;;;;;;;3.11;100.00;100077.09;4931579;29;20038;-80
2021/12/10 18:27:26;;;;;;;2.60;2.47;;;;;;;3.09;100.00;100074.50;4928629;29;21091;-81
2021/12/10 18:29:53;;;;;;;2.72;2.53;;;;;;;3.07;100.00;100084.16;4929193;29;20088;-80
2021/12/10 18:32:25;;;;;;;2.40;2.28;;;;;;;3.13;100.00;100083.16;4926125;29;20040;-80
2021/12/10 18:34:53;;;;;;;2.08;1.98;;;;;;;3.03;100.00;100081.66;4928932;29;20023;-80
2021/12/10 18:37:27;;;;;;;2.38;2.28;;;;;;;3.02;100.00;100083.44;4930490;29;20075;-80
2021/12/10 18:40:08;;;;;;;2.88;2.67;;;;;;;2.97;100.00;100092.31;4928256;29;20024;-79
2021/12/10 18:42:38;;;;;;;2.15;2.05;;;;;;;3.04;100.00;100086.88;4930374;29;20754;-80
2021/12/10 18:45:14;;;;;;;3.72;2.65;;;;;;;2.96;100.00;100096.69;4925502;29;20118;-80
2021/12/10 18:47:43;;;;;;;3.17;2.97;;;;;;;2.99;100.00;100103.63;4937212;29;20087;-82
2021/12/10 18:50:20;;;;;;;2.60;2.40;;;;;;;3.00;100.00;100100.09;4939175;29;20020;-80
2021/12/10 18:52:46;;;;;;;2.42;2.33;;;;;;;3.00;100.00;100100.09;4951620;29;20031;-81
2021/12/10 18:55:15;;;;;;;2.45;2.28;;;;;;;2.97;100.00;100102.78;4943171;29;20032;-78
2021/12/10 18:57:46;;;;;;;2.38;2.28;;;;;;;2.84;100.00;100104.84;4939457;29;20372;-79
2021/12/10 19:00:12;;;;;;;2.20;2.10;;;;;;;2.81;100.00;100104.91;4939255;29;20032;-79
2021/12/10 19:02:41;;;;;;;2.67;2.55;;;;;;;2.75;100.00;100099.81;4937787;29;20039;-79
2021/12/10 19:05:13;;;;;;;2.50;2.40;;;;;;;2.75;100.00;100102.44;4936905;29;20543;-80
2021/12/10 19:07:46;;;;;;;2.65;2.50;;;;;;;2.76;100.00;100109.41;4936049;29;20031;-80
2021/12/10 19:10:24;;;;;;;2.63;2.47;;;;;;;2.71;100.00;100113.88;4937480;29;20020;-82
2021/12/10 19:12:57;;;;;;;2.22;2.13;;;;;;;2.68;100.00;100128.81;4938087;29;20054;-80
2021/12/10 19:15:34;;;;;;;2.42;2.28;;;;;;;2.69;100.00;100130.56;4938019;29;20050;-80
2021/12/10 19:18:11;;;;;;;2.92;2.72;;;;;;;2.67;100.00;100151.56;4936876;29;20016;-80
2021/12/10 19:20:40;;;;;;;2.20;2.10;;;;;;;2.80;100.00;100152.16;4935783;29;20106;-80
2021/12/10 19:23:17;;;;;;;2.25;2.15;;;;;;;2.72;100.00;100165.44;4935548;29;20027;-80
2021/12/10 19:25:49;;;;;;;3.13;2.92;;;;;;;2.70;100.00;100167.22;4935212;29;20043;-79
2021/12/10 19:28:23;;;;;;;2.92;2.75;;;;;;;2.65;100.00;100171.69;4931743;29;20102;-79
2021/12/10 19:30:54;;;;;;;3.35;2.35;;;;;;;2.64;100.00;100174.34;4929080;29;20034;-79
2021/12/10 19:33:33;;;;;;;2.50;2.30;;;;;;;2.61;100.00;100183.16;4930203;29;20352;-80
2021/12/10 19:36:10;;;;;;;2.72;2.53;;;;;;;2.60;100.00;100185.81;4933396;29;20035;-79
2021/12/10 19:38:42;;;;;;;1.95;1.85;;;;;;;2.60;100.00;100196.28;4933762;29;20031;-80
2021/12/10 19:41:15;;;;;;;2.15;2.05;;;;;;;2.61;100.00;100208.50;4934110;29;20435;-80
2021/12/10 19:43:45;;;;;;;2.47;2.38;;;;;;;2.60;100.00;100212.88;4933538;29;20031;-80
2021/12/10 19:46:16;;;;;;;2.78;2.58;;;;;;;2.63;100.00;100215.41;4935034;29;20047;-79
2021/12/10 19:49:00;;;;;;;3.47;3.20;;;;;;;2.68;100.00;100217.94;4934878;29;20019;-80
2021/12/10 19:51:40;;;;;;;2.63;2.42;;;;;;;2.71;100.00;100233.63;4934509;29;20036;-79
2021/12/10 19:54:25;;;;;;;3.20;3.00;;;;;;;2.73;100.00;100229.19;4933344;29;20039;-79
2021/12/10 19:56:55;;;;;;;3.33;3.05;;;;;;;2.73;100.00;100243.19;4930098;29;20057;-80
2021/12/10 19:59:23;;;;;;;;;;;;;;;2.72;100.00;100249.34;4932249;29;20087;-80
2021/12/10 20:02:12;;;;;;;2.33;2.22;;;;;;;2.73;100.00;100245.81;4932289;29;20034;-81
2021/12/10 20:04:44;;;;;;;2.03;1.92;;;;;;;2.65;100.00;100257.31;4934956;29;20032;-80
2021/12/10 20:07:10;;;;;;;2.83;2.65;;;;;;;2.58;100.00;100255.75;4932714;29;20108;-80
2021/12/10 20:09:47;;;;;;;2.13;2.03;;;;;;;2.51;100.00;100267.22;4935939;29;20043;-80
2021/12/10 20:12:20;;;;;;;1.70;1.60;;;;;;;2.47;100.00;100271.69;4933497;29;20035;-80
2021/12/10 20:14:51;;;;;;;3.30;3.10;;;;;;;2.47;100.00;100286.53;4934970;29;20349;-79
2021/12/10 20:17:27;;;;;;;2.53;2.40;;;;;;;2.46;100.00;100284.81;4935401;29;20114;-80
2021/12/10 20:20:01;;;;;;;2.45;2.20;;;;;;;2.45;100.00;100294.44;4933569;29;20075;-79
2021/12/10 20:22:53;;;;;;;2.72;2.53;;;;;;;2.50;100.00;100294.34;4932851;29;20038;-79
2021/12/10 20:25:29;;;;;;;2.50;2.28;;;;;;;2.53;100.00;100305.63;4935159;29;20347;-80
2021/12/10 20:28:09;;;;;;;2.67;2.55;;;;;;;2.52;100.00;100300.44;4933944;29;20024;-81
2021/12/10 20:30:46;;;;;;;2.65;2.50;;;;;;;2.46;100.00;100316.28;4932341;29;20065;-82
2021/12/10 20:33:17;;;;;;;2.28;2.17;;;;;;;2.39;100.00;100319.88;4917211;29;20024;-80
2021/12/10 20:35:51;;;;;;;3.95;3.65;;;;;;;2.35;100.00;100331.31;4930597;29;20052;-80
2021/12/10 20:38:38;;;;;;;2.58;2.38;;;;;;;2.38;100.00;100336.50;4930398;29;20479;-80
2021/12/10 20:41:14;;;;;;;3.03;2.83;;;;;;;2.36;100.00;100344.41;4928588;29;20036;-80
2021/12/10 20:43:45;;;;;;;2.40;2.30;;;;;;;2.31;100.00;100343.59;4931620;29;20023;-80
2021/12/10 20:46:40;;;;;;;3.20;3.00;;;;;;;2.28;100.00;100348.91;4925827;29;20112;-81
2021/12/10 20:49:14;;;;;;;2.50;2.40;;;;;;;2.28;100.00;100358.50;4926227;29;20032;-79
2021/12/10 20:51:44;;;;;;;2.58;2.45;;;;;;;2.27;100.00;100359.41;4932912;29;20023;-80
2021/12/10 20:54:14;;;;;;;3.28;3.08;;;;;;;2.26;100.00;100366.38;4928355;29;20062;-79
2021/12/10 20:56:47;;;;;;;2.78;2.63;;;;;;;2.27;100.00;100367.25;4932630;29;20055;-80
2021/12/10 20:59:36;;;;;;;3.28;3.08;;;;;;;2.24;100.00;100383.88;4934432;29;20016;-80
2021/12/10 21:02:08;;;;;;;3.00;2.80;;;;;;;2.20;100.00;100386.59;4906380;29;20051;-80
2021/12/10 21:04:41;;;;;;;2.63;2.42;;;;;;;2.17;100.00;100392.75;4925210;29;20149;-79
2021/12/10 21:07:16;;;;;;;2.00;1.90;;;;;;;2.19;100.00;100396.19;4934101;29;20046;-79
2021/12/10 21:09:49;;;;;;;2.30;2.20;;;;;;;2.20;100.00;100413.66;4936021;29;20498;-80
2021/12/10 21:12:20;;;;;;;3.05;2.85;;;;;;;2.19;100.00;100416.28;4937000;29;20023;-80